Time;durP1;ratioP1;P1;durP2;ratioP2;P2;SDS_P1;SDS_P2;PMS_P1;PMS_P2;Temp;Humidity;BMP_temperature;BMP_pressure;BME280_temperature;BME280_humidity;BME280_pressure;Samples;Min_cycle;Max_cycle;Signal;HPM_P1;HPM_P2
2024/01/28 00:00:29;;;;;;;6.32;1.30;;;;;;;1.46;100.00;101556.94;12184253;19;20457;-82
2024/01/28 00:04:31;;;;;;;4.45;2.00;;;;;;;1.42;100.00;101559.09;12215738;19;20011;-80
2024/01/28 00:08:34;;;;;;;6.80;1.92;;;;;;;1.41;100.00;101551.13;12211214;19;20003;-79
2024/01/28 00:12:38;;;;;;;4.68;1.98;;;;;;;1.40;100.00;101557.53;12195150;19;19999;-81
2024/01/28 00:16:42;;;;;;;9.32;2.28;;;;;;;1.39;100.00;101543.09;12212148;19;20006;-81
2024/01/28 00:20:44;;;;;;;5.93;2.08;;;;;;;1.41;100.00;101529.38;12181490;19;20011;-82
2024/01/28 00:24:46;;;;;;;5.82;2.55;;;;;;;1.39;100.00;101521.38;12207765;19;20039;-81
2024/01/28 00:28:49;;;;;;;;;;;;;;;1.38;100.00;101514.25;12206868;19;20014;-82
2024/01/28 00:32:51;;;;;;;10.13;2.30;;;;;;;1.39;100.00;101517.81;12184783;19;19942;-80
2024/01/28 00:36:53;;;;;;;3.93;2.13;;;;;;;1.35;100.00;101512.66;12205863;19;20010;-80
2024/01/28 00:40:56;;;;;;;;;;;;;;;1.33;100.00;101514.66;12205573;19;20037;-79
2024/01/28 00:44:58;;;;;;;6.77;2.07;;;;;;;1.28;100.00;101511.56;12182897;19;20379;-80
2024/01/28 00:49:01;;;;;;;4.97;2.55;;;;;;;1.27;100.00;101506.25;12201735;19;20010;-80
2024/01/28 00:53:04;;;;;;;7.10;2.10;;;;;;;1.23;100.00;101494.00;12204807;19;20015;-82
2024/01/28 00:57:14;;;;;;;6.70;2.33;;;;;;;1.20;100.00;101497.84;12185219;19;20010;-81
2024/01/28 01:01:16;;;;;;;4.20;1.83;;;;;;;1.22;100.00;101492.25;12208692;19;20007;-80
2024/01/28 01:05:20;;;;;;;6.10;1.73;;;;;;;1.25;100.00;101491.97;12206474;19;20034;-79
2024/01/28 01:09:22;;;;;;;5.93;2.28;;;;;;;1.29;100.00;101485.25;12184093;19;20046;-79
2024/01/28 01:13:25;;;;;;;6.60;2.20;;;;;;;1.34;100.00;101481.09;12218778;19;20056;-81
2024/01/28 01:17:28;;;;;;;6.93;2.63;;;;;;;1.37;100.00;101479.94;12207402;19;20011;-80
2024/01/28 01:21:30;;;;;;;;;;;;;;;1.39;100.00;101477.06;12189229;19;20130;-82
2024/01/28 01:25:34;;;;;;;11.10;2.78;;;;;;;1.38;100.00;101487.06;12206456;19;19954;-80
2024/01/28 01:29:37;;;;;;;10.13;2.80;;;;;;;1.35;100.00;101481.94;12204027;19;20384;-79
2024/01/28 01:33:41;;;;;;;10.00;2.88;;;;;;;1.32;100.00;101471.38;12181863;19;20346;-80
2024/01/28 01:37:43;;;;;;;11.30;3.50;;;;;;;1.28;100.00;101472.66;12196561;19;20010;-78
2024/01/28 01:41:46;;;;;;;8.45;3.67;;;;;;;1.25;100.00;101459.38;12180952;19;20014;-79
2024/01/28 01:45:49;;;;;;;9.00;3.22;;;;;;;1.22;100.00;101455.13;12194366;19;20079;-81
2024/01/28 01:49:51;;;;;;;9.35;2.63;;;;;;;1.20;100.00;101457.13;12199204;19;20118;-80
2024/01/28 01:53:55;;;;;;;4.35;2.28;;;;;;;1.18;100.00;101456.41;12175624;19;20236;-80
2024/01/28 01:57:58;;;;;;;9.53;2.23;;;;;;;1.16;100.00;101444.88;12200379;19;20014;-79
2024/01/28 02:02:09;;;;;;;4.38;2.25;;;;;;;1.15;100.00;101454.00;12196697;19;20017;-80
2024/01/28 02:06:11;;;;;;;7.45;2.30;;;;;;;1.13;100.00;101456.00;12174698;19;20007;-80
2024/01/28 02:10:15;;;;;;;4.22;2.05;;;;;;;1.08;100.00;101447.47;12196425;19;20022;-80
2024/01/28 02:14:28;;;;;;;6.55;1.83;;;;;;;1.01;100.00;101440.88;12192605;19;20007;-79
2024/01/28 02:18:30;;;;;;;11.48;2.70;;;;;;;0.94;100.00;101437.91;12175816;19;20056;-80
2024/01/28 02:22:33;;;;;;;5.85;1.95;;;;;;;0.87;100.00;101428.66;12197276;19;20796;-79
2024/01/28 02:26:36;;;;;;;6.47;1.77;;;;;;;0.84;100.00;101416.25;12196666;19;20002;-80
2024/01/28 02:30:39;;;;;;;4.80;1.95;;;;;;;0.85;100.00;101423.38;12177475;19;20711;-79
2024/01/28 02:34:47;;;;;;;5.28;1.77;;;;;;;0.86;100.00;101422.38;12196787;19;20006;-79
2024/01/28 02:38:49;;;;;;;8.50;2.10;;;;;;;0.88;100.00;101431.22;12176850;19;20030;-80
2024/01/28 02:42:51;;;;;;;5.47;2.37;;;;;;;0.92;100.00;101410.06;12195793;19;20038;-80
2024/01/28 02:46:54;;;;;;;9.23;2.40;;;;;;;0.93;100.00;101410.94;12198724;19;20011;-80
2024/01/28 02:50:59;;;;;;;6.65;2.15;;;;;;;0.95;100.00;101415.19;12173266;19;20028;-80
2024/01/28 02:55:02;;;;;;;4.32;1.98;;;;;;;1.02;100.00;101412.75;12199168;19;20006;-81
2024/01/28 02:59:04;;;;;;;5.90;2.63;;;;;;;1.07;100.00;101414.03;12185122;19;20375;-80
2024/01/28 03:03:08;;;;;;;5.43;2.05;;;;;;;1.09;100.00;101408.44;12190997;19;20110;-80
2024/01/28 03:07:16;;;;;;;11.02;3.10;;;;;;;1.10;100.00;101412.84;12202582;19;20664;-81
2024/01/28 03:11:19;;;;;;;6.45;2.33;;;;;;;1.08;100.00;101414.88;12198251;19;20010;-81
2024/01/28 03:15:21;;;;;;;8.53;2.40;;;;;;;1.06;100.00;101417.72;12175793;19;20018;-80
2024/01/28 03:19:25;;;;;;;7.10;2.38;;;;;;;1.07;100.00;101416.75;12208505;19;20042;-80
2024/01/28 03:23:27;;;;;;;10.60;2.43;;;;;;;1.07;100.00;101413.16;12208922;19;20009;-79
2024/01/28 03:27:29;;;;;;;6.32;2.60;;;;;;;1.08;100.00;101409.44;12186626;19;20093;-79
2024/01/28 03:31:33;;;;;;;7.97;2.75;;;;;;;1.09;100.00;101413.84;12206784;19;20042;-79
2024/01/28 03:35:41;;;;;;;9.80;3.00;;;;;;;1.08;100.00;101409.44;12183306;19;20687;-79
2024/01/28 03:39:43;;;;;;;12.85;2.53;;;;;;;1.09;100.00;101408.44;12204535;19;20007;-79
2024/01/28 03:43:48;;;;;;;8.35;2.80;;;;;;;1.08;100.00;101414.88;12201692;19;20018;-79
2024/01/28 03:47:50;;;;;;;3.88;2.47;;;;;;;1.09;100.00;101412.00;12185771;19;20710;-79
2024/01/28 03:51:53;;;;;;;9.48;2.63;;;;;;;1.10;100.00;101412.84;12203414;19;20074;-78
2024/01/28 03:55:56;;;;;;;7.22;3.38;;;;;;;1.12;100.00;101411.69;12194142;19;20086;-78
2024/01/28 03:59:59;;;;;;;5.80;3.08;;;;;;;1.16;100.00;101423.13;12180975;19;20008;-78
2024/01/28 04:04:01;;;;;;;7.38;2.92;;;;;;;1.17;100.00;101411.25;12205218;19;20590;-79
2024/01/28 04:08:04;;;;;;;6.85;3.10;;;;;;;1.17;100.00;101415.84;12201866;19;20060;-79
2024/01/28 04:12:09;;;;;;;5.57;2.67;;;;;;;1.13;100.00;101409.84;12180979;19;20804;-79
2024/01/28 04:16:13;;;;;;;8.45;2.92;;;;;;;1.13;100.00;101412.53;12203537;19;20007;-79
2024/01/28 04:20:16;;;;;;;11.10;2.95;;;;;;;1.12;100.00;101403.56;12205270;19;20078;-79
2024/01/28 04:24:18;;;;;;;9.00;3.63;;;;;;;1.13;100.00;101401.69;12183851;19;20024;-79
2024/01/28 04:28:23;;;;;;;4.78;2.10;;;;;;;1.09;100.00;101397.56;12203005;19;20259;-78
2024/01/28 04:32:25;;;;;;;6.88;3.28;;;;;;;1.08;100.00;101395.88;12205501;19;20090;-79
2024/01/28 04:36:30;;;;;;;11.00;2.50;;;;;;;1.08;100.00;101393.16;12179849;19;20770;-79
2024/01/28 04:40:33;;;;;;;7.57;2.83;;;;;;;1.07;100.00;101391.44;12205013;19;20022;-79
2024/01/28 04:44:35;;;;;;;6.13;2.83;;;;;;;1.05;100.00;101383.44;12206780;19;20006;-79
2024/01/28 04:48:37;;;;;;;5.32;3.40;;;;;;;1.03;100.00;101381.88;12183648;19;20563;-79
2024/01/28 04:52:39;;;;;;;7.82;2.65;;;;;;;1.00;100.00;101391.19;12215145;19;20011;-79
2024/01/28 04:56:41;;;;;;;9.23;2.38;;;;;;;0.97;100.00;101385.19;12193511;19;20058;-79
2024/01/28 05:00:43;;;;;;;8.77;2.92;;;;;;;0.97;100.00;101385.19;12208958;19;20003;-79
2024/01/28 05:04:45;;;;;;;4.90;1.60;;;;;;;0.96;100.00;101386.22;12242128;19;20009;-79
2024/01/28 05:08:47;;;;;;;6.32;2.47;;;;;;;0.94;100.00;101386.34;12197191;19;20014;-79
2024/01/28 05:12:51;;;;;;;6.93;2.60;;;;;;;0.91;100.00;101381.22;12211845;19;20031;-80
2024/01/28 05:16:55;;;;;;;5.80;2.70;;;;;;;0.87;100.00;101396.09;12217555;19;20006;-80
2024/01/28 05:20:57;;;;;;;6.27;2.27;;;;;;;0.84;100.00;101389.09;12228868;19;20018;-78
2024/01/28 05:25:00;;;;;;;6.97;2.60;;;;;;;0.80;100.00;101387.66;12267355;19;20020;-79
2024/01/28 05:29:05;;;;;;;7.47;3.05;;;;;;;0.77;100.00;101392.53;12254779;19;20015;-79
2024/01/28 05:33:07;;;;;;;4.40;2.55;;;;;;;0.73;100.00;101400.13;12193301;19;20090;-80
2024/01/28 05:37:10;;;;;;;7.85;2.83;;;;;;;0.67;100.00;101390.72;12208875;19;20006;-79
2024/01/28 05:41:15;;;;;;;11.90;3.17;;;;;;;0.65;100.00;101378.28;12204136;19;20007;-79
2024/01/28 05:45:18;;;;;;;9.50;2.53;;;;;;;0.63;100.00;101378.44;12187942;19;20074;-79
2024/01/28 05:49:20;;;;;;;6.50;3.05;;;;;;;0.63;100.00;101375.75;12221985;19;20007;-80
2024/01/28 05:53:25;;;;;;;12.13;4.23;;;;;;;0.66;100.00;101367.31;12217153;19;20011;-79
2024/01/28 05:57:29;;;;;;;6.85;2.85;;;;;;;0.69;100.00;101366.16;12197978;19;20051;-79
2024/01/28 06:01:31;;;;;;;7.38;3.13;;;;;;;0.71;100.00;101369.56;12243381;19;20017;-79
2024/01/28 06:05:33;;;;;;;13.53;3.33;;;;;;;0.74;100.00;101371.13;12242374;19;20269;-79
2024/01/28 06:09:37;;;;;;;7.03;2.80;;;;;;;0.77;100.00;101376.25;12208808;19;20032;-79
2024/01/28 06:13:39;;;;;;;6.20;3.13;;;;;;;0.80;100.00;101367.81;12237724;19;20041;-79
2024/01/28 06:17:41;;;;;;;6.53;2.85;;;;;;;0.81;100.00;101364.97;12201013;19;20694;-79
2024/01/28 06:21:43;;;;;;;9.90;3.05;;;;;;;0.80;100.00;101374.09;12220090;19;20078;-79
2024/01/28 06:25:46;;;;;;;7.63;2.72;;;;;;;0.80;100.00;101367.81;12229795;19;20010;-79
2024/01/28 06:29:48;;;;;;;7.43;2.57;;;;;;;0.78;100.00;101359.84;12197028;19;20015;-80
2024/01/28 06:33:51;;;;;;;7.30;3.53;;;;;;;0.78;100.00;101373.41;12230099;19;20076;-80
2024/01/28 06:37:53;;;;;;;8.23;2.58;;;;;;;0.73;100.00;101367.56;12238503;19;20006;-79
2024/01/28 06:41:55;;;;;;;4.60;2.50;;;;;;;0.67;100.00;101373.59;12195998;19;20434;-80
2024/01/28 06:45:59;;;;;;;7.10;3.20;;;;;;;0.58;100.00;101379.88;12203336;19;20014;-80
2024/01/28 06:50:02;;;;;;;7.78;2.88;;;;;;;0.53;100.00;101376.75;12200816;19;20081;-80
2024/01/28 06:54:04;;;;;;;;;;;;;;;0.49;100.00;101369.91;12191171;19;20028;-81
2024/01/28 06:58:07;;;;;;;8.93;3.00;;;;;;;0.43;100.00;101374.06;12209413;19;19930;-80
2024/01/28 07:02:09;;;;;;;7.20;2.70;;;;;;;0.36;100.00;101362.97;12211363;19;20010;-81
2024/01/28 07:06:16;;;;;;;4.90;2.53;;;;;;;0.32;100.00;101380.50;12188040;19;20014;-80
2024/01/28 07:10:18;;;;;;;6.88;2.95;;;;;;;0.24;100.00;101369.53;12237024;19;20007;-80
2024/01/28 07:14:22;;;;;;;7.72;3.03;;;;;;;0.20;100.00;101376.22;12237325;19;20010;-81
2024/01/28 07:18:23;;;;;;;;;;;;;;;0.15;100.00;101381.22;12234627;19;20003;-80
2024/01/28 07:22:29;;;;;;;9.05;3.13;;;;;;;0.13;100.00;101383.25;12256214;19;19911;-79
2024/01/28 07:26:32;;;;;;;8.02;3.30;;;;;;;0.10;100.00;101386.25;12255459;19;20005;-81
2024/01/28 07:30:35;;;;;;;9.45;3.50;;;;;;;0.08;100.00;101380.94;12233220;19;20010;-79
2024/01/28 07:34:37;;;;;;;8.07;3.50;;;;;;;0.09;100.00;101385.38;12218066;19;20011;-81
2024/01/28 07:38:39;;;;;;;7.93;3.63;;;;;;;0.10;100.00;101381.66;12211122;19;20002;-81
2024/01/28 07:42:41;;;;;;;13.43;4.03;;;;;;;0.10;100.00;101386.25;12186666;19;20075;-81
2024/01/28 07:46:43;;;;;;;7.78;3.65;;;;;;;0.07;100.00;101378.41;12209481;19;20030;-82
2024/01/28 07:50:45;;;;;;;18.73;5.97;;;;;;;0.07;100.00;101373.81;12185987;19;20038;-82
2024/01/28 07:54:47;;;;;;;10.60;3.87;;;;;;;0.08;100.00;101366.53;12209555;19;20010;-81
2024/01/28 07:58:51;;;;;;;10.80;4.03;;;;;;;0.09;100.00;101368.25;12209396;19;20917;-81
2024/01/28 08:02:53;;;;;;;9.50;3.73;;;;;;;0.06;100.00;101368.53;12184456;19;20006;-81
2024/01/28 08:06:57;;;;;;;8.95;4.28;;;;;;;0.09;100.00;101363.72;12215746;19;20079;-81
2024/01/28 08:10:59;;;;;;;10.97;3.60;;;;;;;0.15;100.00;101354.13;12207127;19;20018;-80
2024/01/28 08:15:02;;;;;;;10.33;4.13;;;;;;;0.22;100.00;101368.81;12183788;19;23087;-78
2024/01/28 08:19:05;;;;;;;8.63;4.47;;;;;;;0.31;100.00;101389.66;12220964;19;20403;-79
2024/01/28 08:23:07;;;;;;;8.40;3.63;;;;;;;0.48;100.00;101384.47;12215849;19;20457;-80
2024/01/28 08:27:09;;;;;;;16.88;6.13;;;;;;;0.62;100.00;101376.72;12167513;19;20010;-80
2024/01/28 08:31:12;;;;;;;13.00;6.47;;;;;;;0.77;100.00;101379.81;12217541;19;20013;-80
2024/01/28 08:35:14;;;;;;;12.65;6.90;;;;;;;0.89;100.00;101378.66;12200801;19;20002;-80
2024/01/28 08:39:17;;;;;;;10.45;5.18;;;;;;;1.02;100.00;101378.31;12185800;19;20007;-80
2024/01/28 08:43:19;;;;;;;9.70;4.07;;;;;;;1.16;100.00;101385.13;12207264;19;20064;-80
2024/01/28 08:47:20;;;;;;;11.80;5.87;;;;;;;1.31;100.00;101382.75;12211993;19;20504;-79
2024/01/28 08:51:22;;;;;;;18.48;6.95;;;;;;;1.42;100.00;101398.84;12180767;19;20015;-82
2024/01/28 08:55:25;;;;;;;12.90;5.80;;;;;;;1.54;100.00;101403.03;12207410;19;20010;-81
2024/01/28 08:59:28;;;;;;;9.68;4.47;;;;;;;1.70;100.00;101405.13;12183994;19;20010;-80
2024/01/28 09:03:30;;;;;;;8.60;3.80;;;;;;;1.88;100.00;101404.28;12183979;19;20006;-80
2024/01/28 09:07:34;;;;;;;10.15;5.47;;;;;;;2.07;100.00;101412.28;12201917;19;20111;-80
2024/01/28 09:11:36;;;;;;;11.13;4.90;;;;;;;2.23;100.00;101409.72;12204833;19;20019;-80
2024/01/28 09:15:38;;;;;;;10.55;4.57;;;;;;;2.43;100.00;101406.81;12177045;19;20496;-79
2024/01/28 09:19:40;;;;;;;9.17;4.33;;;;;;;2.61;100.00;101402.19;12199155;19;20010;-80
2024/01/28 09:23:44;;;;;;;12.10;4.55;;;;;;;2.81;100.00;101402.00;12179796;19;20428;-80
2024/01/28 09:27:48;;;;;;;7.97;4.20;;;;;;;3.03;100.00;101409.59;12196648;19;20023;-79
2024/01/28 09:31:59;;;;;;;10.05;4.82;;;;;;;3.19;100.00;101396.09;12199806;19;20006;-80
2024/01/28 09:36:01;;;;;;;9.50;4.55;;;;;;;3.32;100.00;101409.25;12170940;19;20004;-79
2024/01/28 09:40:04;;;;;;;11.77;4.63;;;;;;;3.42;100.00;101406.38;12196591;19;20005;-81
2024/01/28 09:44:06;;;;;;;11.60;4.57;;;;;;;3.63;100.00;101405.97;12194677;19;20014;-80
2024/01/28 09:48:12;;;;;;;9.30;4.22;;;;;;;3.90;100.00;101407.59;12174726;19;20010;-80
2024/01/28 09:52:14;;;;;;;11.38;4.47;;;;;;;4.16;100.00;101414.75;12194210;19;20089;-79
2024/01/28 09:56:17;;;;;;;;;;;;;;;4.39;100.00;101406.78;12197002;19;20832;-80
2024/01/28 10:00:20;;;;;;;9.38;4.20;;;;;;;4.66;100.00;101403.69;12173115;19;19930;-80
2024/01/28 10:04:23;;;;;;;9.18;4.30;;;;;;;4.90;98.75;101410.97;12197086;19;20006;-79
2024/01/28 10:08:27;;;;;;;8.93;3.78;;;;;;;5.17;97.66;101408.88;12196225;19;20047;-81
2024/01/28 10:12:31;;;;;;;7.78;3.70;;;;;;;5.45;96.34;101404.69;12167642;19;20027;-80
2024/01/28 10:16:32;;;;;;;13.70;5.07;;;;;;;5.67;95.31;101396.72;12196569;19;20042;-79
2024/01/28 10:20:36;;;;;;;9.52;4.35;;;;;;;5.91;93.08;101399.31;12197084;19;20359;-79
2024/01/28 10:24:41;;;;;;;12.23;4.70;;;;;;;6.05;89.44;101394.97;12191795;19;20018;-80
2024/01/28 10:28:44;;;;;;;14.68;4.82;;;;;;;6.16;89.05;101394.56;12213542;19;20011;-81
2024/01/28 10:32:46;;;;;;;10.17;4.70;;;;;;;6.26;88.76;101386.09;12178248;19;20010;-80
2024/01/28 10:36:52;;;;;;;10.85;4.63;;;;;;;6.42;87.87;101384.25;12199027;19;20026;-82
2024/01/28 10:40:54;;;;;;;11.65;4.30;;;;;;;6.52;86.24;101384.88;12207369;19;20042;-82
2024/01/28 10:44:57;;;;;;;9.07;5.00;;;;;;;6.57;83.78;101374.19;12181442;19;20027;-80
2024/01/28 10:49:09;;;;;;;9.93;4.40;;;;;;;6.68;81.87;101361.94;12210983;19;20039;-79
2024/01/28 10:53:13;;;;;;;9.05;4.40;;;;;;;6.75;81.81;101350.06;12204771;19;20058;-81
2024/01/28 10:57:18;;;;;;;11.00;4.85;;;;;;;6.91;81.36;101351.78;12184188;19;20469;-78
2024/01/28 11:01:26;;;;;;;15.98;7.32;;;;;;;7.02;80.61;101343.09;12208341;19;20390;-79
2024/01/28 11:05:29;;;;;;;32.63;13.13;;;;;;;7.12;79.79;101334.56;12209985;19;20014;-81
2024/01/28 11:09:32;;;;;;;10.88;6.30;;;;;;;7.23;80.49;101331.34;12186527;19;20452;-79
2024/01/28 11:13:34;;;;;;;11.13;4.85;;;;;;;7.34;77.84;101329.16;12208676;19;20021;-79
2024/01/28 11:17:42;;;;;;;10.10;4.93;;;;;;;7.48;78.08;101320.03;12212597;19;20006;-79
2024/01/28 11:21:52;;;;;;;11.63;4.93;;;;;;;7.63;77.45;101307.13;12187210;19;20010;-79
2024/01/28 11:25:55;;;;;;;12.85;4.70;;;;;;;7.75;76.34;101300.09;12208182;19;20018;-79
2024/01/28 11:29:57;;;;;;;8.93;4.23;;;;;;;7.95;75.74;101304.94;12189208;19;20018;-82
2024/01/28 11:34:17;;;;;;;12.63;5.00;;;;;;;8.09;73.72;101301.28;12208998;19;20017;-79
2024/01/28 11:38:21;;;;;;;10.02;4.18;;;;;;;8.21;74.03;101304.34;12213149;19;20279;-80
2024/01/28 11:42:24;;;;;;;11.18;4.95;;;;;;;8.31;74.09;101290.28;12217624;19;20135;-78
2024/01/28 11:46:26;;;;;;;9.75;4.40;;;;;;;8.51;74.23;101283.06;12241027;19;20082;-77
2024/01/28 11:50:28;;;;;;;7.25;4.00;;;;;;;8.64;73.10;101277.66;12225196;19;20036;-81
2024/01/28 11:54:31;;;;;;;8.73;4.40;;;;;;;8.86;71.40;101278.44;12194366;19;20006;-80
2024/01/28 11:58:33;;;;;;;8.85;3.90;;;;;;;9.10;71.13;101274.31;12217069;19;20070;-79
2024/01/28 12:02:40;;;;;;;8.97;4.60;;;;;;;9.50;71.85;101266.22;12218407;19;20086;-78
2024/01/28 12:06:44;;;;;;;10.38;4.28;;;;;;;10.02;71.53;101259.13;12201415;19;21345;-80
2024/01/28 12:10:56;;;;;;;7.63;4.53;;;;;;;10.58;66.90;101262.50;12223849;19;20515;-77
2024/01/28 12:14:58;;;;;;;9.68;4.20;;;;;;;11.26;67.42;101256.56;12183170;19;20013;-77
2024/01/28 12:19:00;;;;;;;;;;;;;;;11.91;63.30;101248.16;12208521;19;20086;-79
2024/01/28 12:23:03;;;;;;;11.23;4.25;;;;;;;12.60;62.79;101237.97;12219430;19;19915;-80
2024/01/28 12:27:05;;;;;;;11.33;4.53;;;;;;;13.00;58.23;101227.31;12200171;19;20011;-79
2024/01/28 12:31:12;;;;;;;10.10;4.95;;;;;;;13.32;59.69;101227.97;12236350;19;20108;-82
2024/01/28 12:35:14;;;;;;;8.07;4.05;;;;;;;13.47;56.96;101212.88;12217994;19;20026;-78
2024/01/28 12:39:17;;;;;;;;;;;;;;;13.57;55.18;101202.94;12190803;19;20010;-79
2024/01/28 12:43:18;;;;;;;10.32;5.25;;;;;;;13.91;58.01;101206.88;12237125;19;20069;-81
2024/01/28 12:47:20;;;;;;;12.73;6.32;;;;;;;14.20;55.00;101204.25;12235206;19;20014;-83
2024/01/28 12:51:22;;;;;;;11.00;5.93;;;;;;;14.67;56.25;101201.53;12207902;19;20488;-80
2024/01/28 12:55:24;;;;;;;11.47;5.83;;;;;;;15.00;54.15;101194.47;12233155;19;21230;-82
2024/01/28 12:59:28;;;;;;;13.27;5.95;;;;;;;15.34;53.85;101189.84;12225588;19;20021;-78
2024/01/28 13:03:30;;;;;;;14.50;6.38;;;;;;;15.54;51.02;101191.34;12167492;19;20010;-81
2024/01/28 13:07:32;;;;;;;12.80;6.35;;;;;;;15.94;51.01;101180.13;12192783;19;20006;-82
2024/01/28 13:11:34;;;;;;;11.57;6.40;;;;;;;15.81;51.02;101178.53;12214638;19;20023;-80
2024/01/28 13:15:35;;;;;;;11.67;6.77;;;;;;;14.83;50.52;101174.94;12229081;19;20169;-80
2024/01/28 13:19:38;;;;;;;11.32;6.07;;;;;;;13.60;51.77;101174.78;12211034;19;20021;-80
2024/01/28 13:23:41;;;;;;;10.20;6.28;;;;;;;12.86;53.39;101178.75;12230466;19;20070;-79
2024/01/28 13:27:43;;;;;;;11.30;5.87;;;;;;;12.25;54.07;101173.03;12218104;19;20076;-81
2024/01/28 13:31:45;;;;;;;14.20;6.13;;;;;;;11.70;55.34;101169.25;12182414;19;20909;-81
2024/01/28 13:35:54;;;;;;;12.52;6.55;;;;;;;11.38;56.43;101170.09;12204283;19;20003;-80
2024/01/28 13:39:55;;;;;;;12.68;7.00;;;;;;;10.97;57.09;101158.66;12206331;19;20017;-81
2024/01/28 13:43:59;;;;;;;14.63;6.07;;;;;;;10.62;58.49;101159.88;12182727;19;20115;-79
2024/01/28 13:48:00;;;;;;;12.98;6.90;;;;;;;10.36;59.16;101149.78;12202804;19;20112;-83
2024/01/28 13:52:05;;;;;;;11.07;6.10;;;;;;;10.12;60.36;101151.28;12205020;19;20343;-77
2024/01/28 13:56:07;;;;;;;13.97;6.43;;;;;;;9.95;60.41;101152.78;12176656;19;20074;-82
2024/01/28 14:00:11;;;;;;;;;;;;;;;9.77;61.83;101150.66;12195841;19;20003;-82
2024/01/28 14:04:13;;;;;;;13.73;6.00;;;;;;;9.68;62.03;101149.19;12199802;19;20335;-83
2024/01/28 14:08:23;;;;;;;11.82;6.35;;;;;;;9.56;62.43;101149.81;12175925;19;20053;-80
2024/01/28 14:12:26;;;;;;;14.70;6.35;;;;;;;9.45;62.83;101141.31;12198316;19;20010;-80
2024/01/28 14:16:30;;;;;;;12.10;6.35;;;;;;;9.37;63.44;101142.38;12176168;19;20010;-81
2024/01/28 14:20:32;;;;;;;14.10;6.80;;;;;;;9.29;64.40;101151.66;12199707;19;20003;-82
2024/01/28 14:24:35;;;;;;;13.82;6.57;;;;;;;9.13;65.42;101158.41;12198026;19;20006;-80
2024/01/28 14:28:36;;;;;;;13.95;6.88;;;;;;;8.98;66.93;101159.63;12177459;19;20023;-79
2024/01/28 14:32:44;;;;;;;14.15;6.35;;;;;;;8.93;66.71;101160.25;12201294;19;20052;-80
2024/01/28 14:36:46;;;;;;;14.97;6.73;;;;;;;8.84;68.25;101162.34;12202994;19;20011;-83
2024/01/28 14:40:49;;;;;;;13.63;6.95;;;;;;;8.78;68.85;101165.06;12173705;19;20000;-80
2024/01/28 14:44:54;;;;;;;14.80;6.97;;;;;;;8.69;69.42;101169.88;12196008;19;20363;-82
2024/01/28 14:48:56;;;;;;;15.30;6.70;;;;;;;8.63;69.94;101156.97;12200878;19;20462;-80
2024/01/28 14:52:59;;;;;;;13.05;7.40;;;;;;;8.57;70.33;101150.38;12176198;19;20554;-83
2024/01/28 14:57:02;;;;;;;10.75;6.13;;;;;;;8.50;70.59;101151.38;12195348;19;20014;-81
2024/01/28 15:01:04;;;;;;;16.92;6.57;;;;;;;8.47;70.91;101149.88;12195192;19;20013;-80
2024/01/28 15:05:07;;;;;;;16.50;6.23;;;;;;;8.45;71.09;101146.53;12174794;19;20505;-82
2024/01/28 15:09:09;;;;;;;13.75;7.28;;;;;;;8.38;71.46;101143.72;12195523;19;20007;-81
2024/01/28 15:13:11;;;;;;;14.02;7.22;;;;;;;8.32;71.35;101144.50;12207651;19;20010;-82
2024/01/28 15:17:16;;;;;;;12.95;6.85;;;;;;;8.21;72.20;101143.19;12188502;19;20010;-80
2024/01/28 15:21:18;;;;;;;15.38;6.50;;;;;;;8.19;72.32;101149.91;12206208;19;20011;-82
2024/01/28 15:25:20;;;;;;;17.33;6.80;;;;;;;8.13;72.03;101151.56;12202161;19;20007;-80
2024/01/28 15:29:22;;;;;;;13.77;6.85;;;;;;;8.04;72.27;101149.19;12189979;19;20014;-81
2024/01/28 15:33:26;;;;;;;11.45;6.05;;;;;;;7.95;73.12;101163.06;12209181;19;20026;-82
2024/01/28 15:37:28;;;;;;;10.95;6.40;;;;;;;7.85;73.62;101153.47;12187055;19;20035;-79
2024/01/28 15:41:30;;;;;;;13.25;6.93;;;;;;;7.69;74.55;101147.22;12198526;19;20063;-79
2024/01/28 15:45:32;;;;;;;10.55;5.75;;;;;;;7.54;75.61;101146.47;12204260;19;20034;-81
2024/01/28 15:49:35;;;;;;;14.90;6.38;;;;;;;7.36;76.46;101146.94;12183843;19;20019;-79
2024/01/28 15:53:37;;;;;;;;;;;;;;;7.18;77.68;101152.88;12206026;19;20056;-81
2024/01/28 15:57:40;;;;;;;11.23;6.13;;;;;;;6.99;77.95;101148.00;12207178;19;19919;-80
2024/01/28 16:01:42;;;;;;;10.35;4.35;;;;;;;6.77;78.77;101153.44;12182513;19;20007;-81
2024/01/28 16:05:46;;;;;;;13.23;6.80;;;;;;;6.58;80.04;101151.31;12205908;19;20019;-80
2024/01/28 16:09:48;;;;;;;13.43;7.10;;;;;;;6.39;80.88;101150.88;12205972;19;20014;-82
2024/01/28 16:13:59;;;;;;;13.18;6.15;;;;;;;6.19;81.82;101149.75;12181624;19;20459;-80
2024/01/28 16:18:01;;;;;;;12.60;6.43;;;;;;;6.02;82.54;101153.69;12202376;19;20024;-82
2024/01/28 16:22:07;;;;;;;14.77;7.18;;;;;;;5.81;83.48;101149.75;12185322;19;20030;-79
2024/01/28 16:26:10;;;;;;;12.57;6.07;;;;;;;5.63;84.55;101146.53;12183993;19;20010;-78
2024/01/28 16:30:13;;;;;;;18.30;8.32;;;;;;;5.47;85.37;101150.22;12202631;19;20042;-80
2024/01/28 16:34:15;;;;;;;17.30;8.20;;;;;;;5.31;86.12;101148.50;12214218;19;20015;-81
2024/01/28 16:38:18;;;;;;;14.50;8.73;;;;;;;5.17;87.00;101149.28;12185029;19;20048;-82
2024/01/28 16:42:20;;;;;;;21.58;9.30;;;;;;;5.01;87.97;101162.00;12202204;19;20462;-78
2024/01/28 16:46:23;;;;;;;18.30;8.20;;;;;;;4.90;88.89;101158.84;12207858;19;20003;-79
2024/01/28 16:50:25;;;;;;;15.07;6.83;;;;;;;4.80;89.75;101154.47;12184158;19;20366;-80
2024/01/28 16:54:27;;;;;;;16.43;8.23;;;;;;;4.69;90.17;101162.19;12205418;19;20003;-80
2024/01/28 16:58:29;;;;;;;15.15;7.18;;;;;;;4.59;90.92;101161.59;12184954;19;20477;-80
2024/01/28 17:02:31;;;;;;;14.75;7.18;;;;;;;4.48;91.59;101155.47;12201459;19;20006;-81
2024/01/28 17:06:35;;;;;;;13.95;6.82;;;;;;;4.40;92.08;101157.38;12205707;19;20049;-80
2024/01/28 17:10:42;;;;;;;19.88;8.65;;;;;;;4.32;92.74;101152.81;12181294;19;20019;-80
2024/01/28 17:14:44;;;;;;;19.92;8.85;;;;;;;4.23;93.65;101151.16;12207170;19;20811;-78
2024/01/28 17:18:47;;;;;;;15.02;8.25;;;;;;;4.16;94.50;101141.94;12205056;19;20077;-82
2024/01/28 17:22:51;;;;;;;15.75;7.85;;;;;;;4.07;94.95;101133.78;12190615;19;20015;-80
2024/01/28 17:26:55;;;;;;;16.00;8.23;;;;;;;4.00;95.70;101140.97;12204374;19;20006;-81
2024/01/28 17:30:57;;;;;;;14.23;6.05;;;;;;;3.91;96.75;101136.56;12210775;19;20003;-79
2024/01/28 17:35:03;;;;;;;19.38;8.55;;;;;;;3.85;97.70;101129.06;12183035;19;20457;-81
2024/01/28 17:39:07;;;;;;;19.25;7.70;;;;;;;3.78;98.37;101131.66;12204454;19;20011;-79
2024/01/28 17:43:09;;;;;;;14.82;7.65;;;;;;;3.73;98.50;101122.28;12194727;19;20007;-80
2024/01/28 17:47:14;;;;;;;16.17;7.72;;;;;;;3.64;99.05;101125.03;12180811;19;20018;-82
2024/01/28 17:51:16;;;;;;;15.48;7.38;;;;;;;3.60;98.93;101120.09;12199432;19;20023;-79
2024/01/28 17:55:18;;;;;;;14.47;6.60;;;;;;;3.54;99.56;101118.91;12205946;19;21002;-80
2024/01/28 17:59:21;;;;;;;13.95;6.65;;;;;;;3.51;100.00;101105.63;12181505;19;20513;-82
2024/01/28 18:03:23;;;;;;;21.98;7.13;;;;;;;3.48;100.00;101110.56;12194646;19;20006;-79
2024/01/28 18:07:29;;;;;;;15.90;7.10;;;;;;;3.42;100.00;101103.91;12171708;19;20039;-78
2024/01/28 18:11:32;;;;;;;15.38;6.78;;;;;;;3.39;100.00;101109.69;12191452;19;20025;-79
2024/01/28 18:15:33;;;;;;;14.18;6.72;;;;;;;3.35;100.00;101105.63;12191525;19;20402;-79
2024/01/28 18:19:37;;;;;;;14.45;6.50;;;;;;;3.32;100.00;101106.81;12166830;19;20011;-80
2024/01/28 18:23:39;;;;;;;9.73;5.82;;;;;;;3.29;100.00;101111.75;12198986;19;20010;-79
2024/01/28 18:27:43;;;;;;;12.40;6.55;;;;;;;3.27;100.00;101106.50;12211689;19;20019;-80
2024/01/28 18:31:45;;;;;;;12.17;5.83;;;;;;;3.27;100.00;101101.06;12174051;19;20691;-80
2024/01/28 18:35:51;;;;;;;14.13;6.63;;;;;;;3.20;100.00;101100.88;12205152;19;21119;-79